Latest Weather Observations for Gove Airport

IDD60801

Issued at 6:05 pm CST Tuesday 21 October 2014 (issued every 30 minutes, with the page automatically refreshed every 10 minutes)

About weather observations | Map of weather stations | Latest weather observations for NT | Other Formats
Station Details ID: 014508 Name: GOVE AIRPORT Lat: -12.27 Lon: 136.82 Height: 51.6 m
Data from the previous 72 hours. | See also: Recent months at Gove Airport
Date/Time
CST
Temp
°C
App
Temp
°C
Dew
Point
Rel
Hum
%
Delta-T
°C
Wind Press
QNH
hPa
Press
MSL
hPa
Rain
since 9 am
mm
Dir
 
Spd
km/h
Gust
km/h
Spd
kts
Gust
kts
21/06:00pm 26.9 27.5 21.3 71 3.7 ESE 20 24 11 13 1013.5 - 0.0
21/05:30pm 27.6 27.7 21.1 67 4.3 ESE 22 28 12 15 1013.2 - 0.0
21/05:00pm 28.2 28.5 21.5 67 4.5 ESE 22 28 12 15 1013.1 - 0.0
21/04:30pm 29.0 28.9 21.4 63 5.1 E 24 30 13 16 1013.0 - 0.0
21/04:00pm 29.7 29.7 20.2 56 6.3 ESE 20 33 11 18 1012.9 - 0.0
21/03:30pm 29.7 30.0 20.8 58 5.9 E 20 30 11 16 1012.9 - 0.0
21/03:00pm 30.1 30.7 21.1 58 6.0 ENE 19 26 10 14 1012.9 1012.5 0.0
21/02:30pm 30.5 30.2 19.5 51 7.2 E 20 30 11 16 1013.2 - 0.0
21/02:00pm 29.8 29.4 21.0 59 5.9 E 24 35 13 19 1013.5 - 0.0
21/01:30pm 30.6 30.7 20.3 54 6.8 E 20 32 11 17 1013.8 - 0.0
21/01:00pm 31.0 30.6 20.1 52 7.2 E 22 30 12 16 1014.2 - 0.0
21/12:30pm 30.3 29.7 19.8 53 6.9 E 22 32 12 17 1014.8 - 0.0
21/12:00pm 31.3 30.5 19.2 48 7.9 E 22 26 12 14 1015.3 1015.0 0.0
21/11:30am 31.1 29.9 17.4 44 8.7 E 20 30 11 16 1015.6 - 0.0
21/11:00am 30.2 29.3 19.0 51 7.3 E 22 30 12 16 1015.7 - 0.0
21/10:30am 30.1 28.9 18.3 49 7.6 ENE 22 28 12 15 1015.8 - 0.0
21/10:00am 30.1 29.8 18.3 49 7.6 E 17 26 9 14 1016.1 - 0.0
21/09:30am 29.3 29.7 19.8 56 6.2 E 17 20 9 11 1016.2 - 0.0
21/09:00am 29.6 29.5 20.0 56 6.3 E 20 24 11 13 1016.2 1015.9 0.0
21/08:30am 27.8 28.3 20.9 66 4.6 ESE 19 24 10 13 1016.1 - 0.0
21/08:00am 27.2 27.9 21.2 69 4.0 SE 19 24 10 13 1016.0 - 0.0
21/07:30am 25.8 28.1 21.4 76 2.9 ESE 11 15 6 8 1015.8 - 0.0
21/07:00am 24.0 26.8 21.6 86 1.6 ESE 9 11 5 6 1015.4 - 0.0
21/06:50am 23.3 26.3 21.2 88 1.4 E 7 9 4 5 1015.2 - 0.0
21/06:30am 21.8 24.5 20.6 93 0.8 ESE 7 9 4 5 1014.9 - 0.0
21/06:00am 20.4 22.8 18.8 90 1.0 SSE 4 6 2 3 1014.8 1014.5 0.0
21/05:54am 20.3 22.4 19.0 92 0.8 SSE 6 6 3 3 1014.7 - 0.0
21/05:30am 19.9 23.1 18.8 93 0.7 CALM 0 0 0 0 1014.5 - 0.0
21/05:00am 19.3 22.0 17.7 90 1.0 CALM 0 0 0 0 1014.3 - 0.0
21/04:30am 18.9 21.6 17.8 93 0.7 CALM 0 0 0 0 1014.0 - 0.0
21/04:00am 19.0 21.4 17.9 93 0.7 S 2 7 1 4 1013.7 - 0.0
21/03:30am 19.2 22.1 18.1 93 0.7 CALM 0 0 0 0 1013.6 - 0.0
21/03:00am 19.0 21.6 17.5 91 0.9 CALM 0 0 0 0 1013.5 1013.1 0.0
21/02:30am 19.5 22.4 18.2 92 0.8 CALM 0 0 0 0 1013.8 - 0.0
21/02:10am 19.5 22.4 18.2 92 0.8 CALM 0 0 0 0 1013.8 - 0.0
21/02:00am 19.9 22.9 18.5 92 0.9 CALM 0 0 0 0 1013.8 - 0.0
21/01:30am 19.9 22.2 18.5 92 0.9 SSE 4 7 2 4 1014.1 - 0.0
21/01:00am 20.3 22.7 18.7 90 1.0 N 4 6 2 3 1014.4 - 0.0
21/12:30am 21.4 23.9 20.2 93 0.8 S 7 11 4 6 1014.6 - 0.0
21/12:00am 21.4 24.1 20.2 93 0.8 NNE 6 7 3 4 1014.9 1014.6 0.0
 
Date/Time
CST
Temp
°C
App
Temp
°C
Dew
Point
Rel
Hum
%
Delta-T
°C
Wind Press
QNH
hPa
Press
MSL
hPa
Rain
since 9 am
mm
Dir
 
Spd
km/h
Gust
km/h
Spd
kts
Gust
kts
20/11:30pm 21.5 23.9 20.1 92 0.9 E 7 9 4 5 1015.3 - 0.0
20/11:00pm 21.6 24.1 19.9 90 1.1 ESE 6 7 3 4 1015.4 - 0.0
20/10:30pm 22.3 24.5 20.3 88 1.3 SE 9 11 5 6 1015.3 - 0.0
20/10:00pm 22.2 24.3 20.2 88 1.3 SSE 9 11 5 6 1015.2 - 0.0
20/09:30pm 22.5 25.0 20.2 87 1.5 SSE 7 9 4 5 1014.8 - 0.0
20/09:00pm 23.2 25.4 20.3 84 1.9 ESE 9 11 5 6 1014.3 1013.9 0.0
20/08:30pm 23.3 25.8 20.2 83 2.0 SE 7 9 4 5 1014.0 - 0.0
20/08:00pm 23.8 26.0 20.3 81 2.3 E 9 11 5 6 1013.8 - 0.0
20/07:30pm 24.2 26.2 20.0 77 2.7 ESE 9 11 5 6 1013.4 - 0.0
20/07:00pm 25.3 26.9 19.9 72 3.5 ESE 11 17 6 9 1013.1 - 0.0
20/06:30pm 25.8 26.2 19.8 69 3.9 ESE 17 24 9 13 1012.9 - 0.0
20/06:00pm 26.4 26.4 19.8 67 4.3 ESE 19 24 10 13 1012.6 1012.2 0.0
20/05:30pm 26.9 26.1 19.3 63 4.9 E 22 26 12 14 1012.4 - 0.0
20/05:00pm 28.0 27.4 18.8 57 5.9 E 20 24 11 13 1012.2 - 0.0
20/04:30pm 28.1 27.3 18.4 55 6.2 E 20 28 11 15 1012.2 - 0.0
20/04:00pm 28.7 27.2 16.7 48 7.5 E 20 24 11 13 1012.2 - 0.0
20/03:30pm 28.9 26.9 17.4 49 7.3 E 24 32 13 17 1012.5 - 0.0
20/03:00pm 29.6 27.5 17.1 47 7.9 E 24 39 13 21 1012.6 1012.2 0.0
20/02:30pm 29.6 27.9 17.3 47 7.8 E 22 32 12 17 1012.9 - 0.0
20/02:00pm 29.4 29.3 20.0 57 6.2 E 20 30 11 16 1013.1 - 0.0
20/01:30pm 29.7 28.5 19.3 53 6.8 ENE 24 35 13 19 1013.5 - 0.0
20/01:00pm 29.1 27.7 19.6 56 6.2 ENE 26 35 14 19 1013.9 - 0.0
20/12:30pm 30.4 29.4 18.8 50 7.5 E 22 33 12 18 1014.2 - 0.0
20/12:00pm 30.1 29.3 20.1 55 6.6 E 24 32 13 17 1014.8 1014.5 0.0
20/11:30am 28.8 27.5 19.8 58 5.9 E 26 33 14 18 1015.1 - 0.0
20/11:00am 29.0 27.4 19.3 55 6.3 ESE 26 41 14 22 1015.2 - 0.0
20/10:30am 29.3 28.7 19.7 56 6.3 ESE 22 37 12 20 1015.3 - 0.0
20/10:00am 29.3 27.9 18.8 53 6.8 ESE 24 33 13 18 1015.7 - 0.0
20/09:30am 28.4 27.3 19.5 58 5.8 ESE 24 37 13 20 1015.7 - 0.0
20/09:00am 27.9 27.8 19.9 61 5.2 ESE 20 32 11 17 1015.8 1015.5 0.2
20/08:30am 27.3 27.2 19.9 64 4.8 E 20 24 11 13 1015.9 - 0.2
20/08:00am 26.8 27.6 20.6 69 4.1 E 17 22 9 12 1015.8 - 0.2
20/07:30am 25.7 27.7 20.8 74 3.2 ESE 11 17 6 9 1015.3 - 0.0
20/07:00am 23.9 27.1 20.4 81 2.3 ENE 4 9 2 5 1014.8 - 0.0
20/06:30am 20.8 24.3 19.5 92 0.8 CALM 0 0 0 0 1014.6 - 0.0
20/06:00am 20.4 23.1 18.6 89 1.1 N 2 6 1 3 1014.3 1013.9 0.0
20/05:30am 20.8 22.9 19.4 92 0.9 SE 7 7 4 4 1014.1 - 0.0
20/05:00am 20.5 22.6 18.9 90 1.0 SE 6 7 3 4 1013.9 - 0.0
20/04:30am 20.1 23.3 18.8 92 0.8 CALM 0 0 0 0 1013.9 - 0.0
20/04:00am 20.0 23.1 18.7 92 0.8 CALM 0 0 0 0 1013.6 - 0.0
20/03:30am 20.3 22.5 18.4 89 1.2 NNE 4 6 2 3 1013.7 - 0.0
20/03:00am 20.5 22.3 18.4 88 1.3 NE 6 7 3 4 1013.5 1013.1 0.0
20/02:30am 21.6 23.4 19.6 88 1.3 S 9 13 5 7 1013.5 - 0.0
20/02:00am 21.5 23.3 19.5 88 1.3 SE 9 13 5 7 1013.8 - 0.0
20/01:30am 20.3 23.4 18.7 90 1.0 CALM 0 0 0 0 1014.2 - 0.0
20/01:00am 20.1 21.9 18.3 89 1.1 ENE 6 7 3 4 1014.2 - 0.0
20/12:30am 20.6 22.1 18.8 89 1.1 SSE 9 9 5 5 1014.5 - 0.0
20/12:00am 20.0 22.1 18.1 89 1.2 S 4 9 2 5 1014.6 1014.2 0.0
 
Date/Time
CST
Temp
°C
App
Temp
°C
Dew
Point
Rel
Hum
%
Delta-T
°C
Wind Press
QNH
hPa
Press
MSL
hPa
Rain
since 9 am
mm
Dir
 
Spd
km/h
Gust
km/h
Spd
kts
Gust
kts
19/11:30pm 20.3 22.9 18.4 89 1.2 S 2 7 1 4 1014.9 - 0.0
19/11:00pm 21.1 23.2 18.9 87 1.4 SSE 6 6 3 3 1015.1 - 0.0
19/10:30pm 21.6 23.7 19.4 87 1.4 SSE 7 9 4 5 1015.3 - 0.0
19/10:00pm 22.1 24.3 19.6 86 1.6 SE 7 9 4 5 1015.4 - 0.0
19/09:30pm 22.4 24.6 19.7 85 1.7 ESE 7 9 4 5 1014.8 - 0.0
19/09:00pm 22.7 24.7 19.9 84 1.8 SSE 9 11 5 6 1014.6 1014.2 0.0
19/08:30pm 23.1 25.0 19.8 82 2.1 ESE 9 9 5 5 1014.3 - 0.0
19/08:00pm 23.5 25.8 19.9 80 2.3 NNE 7 9 4 5 1013.9 - 0.0
19/07:30pm 24.2 26.2 19.9 77 2.8 NE 9 9 5 5 1013.6 - 0.0
19/07:00pm 25.5 26.7 19.8 70 3.7 E 13 17 7 9 1013.4 - 0.0
19/06:30pm 26.0 26.4 19.8 68 4.0 ESE 17 20 9 11 1013.2 - 0.0
19/06:00pm 26.6 26.3 19.5 65 4.6 ESE 20 24 11 13 1013.1 1012.7 0.0
19/05:30pm 27.5 27.1 18.8 59 5.6 ESE 19 24 10 13 1012.9 - 0.0
19/05:00pm 28.0 27.5 19.2 58 5.7 ESE 20 26 11 14 1012.6 - 0.0
19/04:30pm 28.4 27.1 19.0 56 6.1 E 24 30 13 16 1012.5 - 0.0
19/04:00pm 28.6 28.1 19.0 56 6.2 E 20 32 11 17 1012.4 - 0.0
19/03:30pm 28.9 27.5 18.7 54 6.6 E 24 33 13 18 1012.6 - 0.0
19/03:00pm 30.2 29.4 19.3 52 7.1 E 22 35 12 19 1012.7 1012.3 0.0
19/02:30pm 29.1 28.4 19.4 55 6.3 E 22 33 12 18 1012.8 - 0.0
19/02:00pm 30.4 29.8 18.8 50 7.5 E 20 32 11 17 1013.0 - 0.0
19/01:30pm 29.2 28.1 19.4 55 6.4 E 24 32 13 17 1013.2 - 0.0
19/01:00pm 28.3 27.2 19.5 59 5.7 E 24 33 13 18 1013.6 - 0.0
19/12:30pm 28.7 27.3 19.7 58 5.9 E 26 33 14 18 1014.1 - 0.0
19/12:00pm 28.8 27.2 20.1 59 5.7 E 28 39 15 21 1014.4 1014.0 0.0
19/11:30am 29.2 28.1 20.3 58 5.9 E 26 35 14 19 1014.8 - 0.0
19/11:00am 28.5 27.5 20.5 62 5.3 E 26 33 14 18 1014.8 - 0.0
19/10:30am 28.1 26.7 20.5 63 5.0 ENE 28 35 15 19 1015.1 - 0.0
19/10:00am 28.7 27.7 20.5 61 5.4 ENE 26 39 14 21 1015.2 - 0.0
19/09:30am 28.9 27.6 20.6 61 5.5 E 28 41 15 22 1015.2 - 0.0
19/09:00am 29.2 28.3 20.6 59 5.7 E 26 37 14 20 1015.3 1015.0 0.0
19/08:30am 27.7 26.9 20.9 66 4.5 E 26 35 14 19 1015.3 - 0.0
19/08:00am 27.9 27.9 21.0 66 4.6 E 22 30 12 16 1014.9 - 0.0
19/07:30am 27.2 27.8 21.0 69 4.1 ENE 19 28 10 15 1014.6 - 0.0
19/07:00am 26.5 27.6 21.2 72 3.5 ENE 17 24 9 13 1014.4 - 0.0
19/06:30am 25.7 27.1 21.0 75 3.1 ENE 15 20 8 11 1014.1 - 0.0
19/06:00am 25.3 26.6 20.9 76 2.9 NE 15 26 8 14 1013.7 1013.3 0.0
19/05:30am 25.0 26.8 21.1 79 2.6 NE 13 20 7 11 1013.4 - 0.0
19/05:00am 24.8 26.4 20.7 78 2.7 ENE 13 20 7 11 1013.2 - 0.0
19/04:30am 23.5 25.7 20.4 83 2.0 NE 9 11 5 6 1013.0 - 0.0
19/04:00am 21.0 24.6 19.7 92 0.8 CALM 0 0 0 0 1012.9 - 0.0
19/03:30am 21.1 24.7 19.8 92 0.8 CALM 0 0 0 0 1012.9 - 0.0
19/03:00am 20.8 24.1 19.2 90 1.0 CALM 0 0 0 0 1013.0 1012.6 0.0
19/02:30am 21.3 25.2 20.4 95 0.6 CALM 0 0 0 0 1013.0 - 0.0
19/02:00am 21.4 25.3 20.3 93 0.7 CALM 0 6 0 3 1013.2 - 0.0
19/01:30am 21.2 24.9 20.0 93 0.8 CALM 0 0 0 0 1013.4 - 0.0
19/01:00am 21.6 25.5 20.4 93 0.8 CALM 0 0 0 0 1013.5 - 0.0
19/12:30am 21.8 24.7 20.6 93 0.8 ENE 6 7 3 4 1013.8 - 0.0
19/12:00am 23.3 26.6 21.8 91 1.0 ESE 7 7 4 4 1014.1 1013.7 0.0
 
Date/Time
CST
Temp
°C
App
Temp
°C
Dew
Point
Rel
Hum
%
Delta-T
°C
Wind Press
QNH
hPa
Press
MSL
hPa
Rain
since 9 am
mm
Dir
 
Spd
km/h
Gust
km/h
Spd
kts
Gust
kts
18/11:30pm 23.9 27.1 21.6 87 1.5 ESE 7 9 4 5 1014.3 - 0.0
18/11:00pm 24.8 27.5 22.1 85 1.8 E 11 13 6 7 1014.4 - 0.0
18/10:30pm 25.1 27.8 22.1 83 2.0 E 11 13 6 7 1014.6 - 0.0
18/10:00pm 25.4 28.3 22.4 83 2.0 E 11 15 6 8 1014.7 - 0.0
18/09:30pm 25.8 28.2 22.2 80 2.4 E 13 17 7 9 1014.6 - 0.0
18/09:00pm 25.9 28.3 22.2 80 2.5 E 13 17 7 9 1014.3 1013.9 0.0
18/08:30pm 26.1 27.9 21.9 77 2.8 E 15 22 8 12 1014.1 - 0.0
18/08:00pm 26.2 27.7 22.0 77 2.8 E 17 24 9 13 1013.8 - 0.0
18/07:30pm 26.5 28.1 22.2 77 2.9 E 17 20 9 11 1013.6 - 0.0
18/07:00pm 26.4 28.4 22.2 78 2.8 E 15 20 8 11 1013.3 - 0.0
18/06:30pm 26.6 28.2 22.1 76 3.0 E 17 24 9 13 1012.9 - 0.0

Other Formats:

Comma delimited format used in spreadsheet applications
http://www.bom.gov.au/fwo/IDD60801/IDD60801.94150.axf

JavaScript Object Notation format (JSON) in row-major order
http://www.bom.gov.au/fwo/IDD60801/IDD60801.94150.json